This is the latest recevied weather packets stored in our database for station/object DC2MP. If no packets are shown the sender has not sent any weather packets the latest 10 day(s).
| Time | Temp. | Humidity | Pressure | Rain* | Wind** | Luminosity | Snow |
|---|---|---|---|---|---|---|---|
| 1778183343 | 10° C | 85% | 1016 hPa | 0 mm | - | - | - |
| 1778179743 | 11.67° C | 76% | 1015.2 hPa | 0 mm | - | - | - |
| 1778176143 | 13.33° C | 63% | 1014.8 hPa | 0 mm | - | - | - |
| 1778168943 | 13.33° C | 59% | 1014.7 hPa | 0 mm | - | - | - |
| 1778165343 | 13.89° C | 56% | 1014.4 hPa | 0 mm | - | - | - |
| 1778158143 | 14.44° C | 58% | 1014.2 hPa | 0 mm | - | - | - |
| 1778154543 | 15° C | 52% | 1013.9 hPa | 0 mm | - | - | - |
| 1778150943 | 13.89° C | 57% | 1014.3 hPa | 0 mm | - | - | - |
| 1778143743 | 11.11° C | 72% | 1014.5 hPa | 0 mm | - | - | - |
| 1778140143 | 11.11° C | 77% | 1014.2 hPa | 0 mm | - | - | - |
| 1778136544 | 10.56° C | 81% | 1013.9 hPa | 0 mm | - | - | - |
| 1778132943 | 8.89° C | 93% | 1013.5 hPa | 0 mm | - | - | - |
| 1778129343 | 7.78° C | 95% | 1013.1 hPa | 0 mm | - | - | - |
| 1778125743 | 7.78° C | 96% | 1012.7 hPa | 0 mm | - | - | - |
| 1778122144 | 8.33° C | 95% | 1012.5 hPa | 1.02 mm | - | - | - |
| 1778118543 | 8.33° C | 96% | 1012.1 hPa | 0 mm | - | - | - |
| 1778111343 | 8.33° C | 94% | 1012 hPa | 0 mm | - | - | - |
| 1778107743 | 8.33° C | 94% | 1011.9 hPa | 0 mm | - | - | - |
| 1778104143 | 8.89° C | 94% | 1011.7 hPa | 0 mm | - | - | - |
| 1778100543 | 8.33° C | 95% | 1011.6 hPa | 0 mm | - | - | - |
| 1778096943 | 7.78° C | 95% | 1011.1 hPa | 0 mm | - | - | - |
| 1778093343 | 7.78° C | 92% | 1010.5 hPa | 0 mm | - | - | - |
| 1778089743 | 8.89° C | 90% | 1010 hPa | 0 mm | - | - | - |
| 1778086143 | 8.33° C | 87% | 1010 hPa | 1.78 mm | - | - | - |
| 1778082543 | 10.56° C | 74% | 1009.2 hPa | 0.51 mm | - | - | - |
* Rain latest hour (hover to see other rain measurements)
** Current wind speed in m/s (hover to see current wind gust speed)